createdAt,value
2023-05-17T00:00:18.918Z,53.37
2023-05-17T00:01:21.330Z,53.19
2023-05-17T00:02:23.559Z,53.57
2023-05-17T00:03:25.828Z,53.51
2023-05-17T00:04:28.350Z,53.45
2023-05-17T00:05:30.870Z,53.68
2023-05-17T00:06:35.106Z,53.77
2023-05-17T00:07:37.740Z,53.84
2023-05-17T00:08:39.940Z,53.88
2023-05-17T00:09:42.138Z,54.26
2023-05-17T00:10:44.365Z,54.38
2023-05-17T00:11:46.538Z,54.38
2023-05-17T00:12:48.745Z,54.26
2023-05-17T00:13:51.143Z,54.37
2023-05-17T00:14:53.603Z,54.36
2023-05-17T00:15:55.859Z,54.58
2023-05-17T00:16:58.144Z,54.31
2023-05-17T00:18:02.063Z,54.17
2023-05-17T00:19:04.619Z,54.11
2023-05-17T00:20:07.357Z,54.07
2023-05-17T00:25:48.544Z,54.61
2023-05-17T00:26:50.807Z,54.58
2023-05-17T00:27:53.136Z,54.31
2023-05-17T00:28:55.454Z,54.58
2023-05-17T00:29:58.003Z,54.44
2023-05-17T00:31:00.545Z,54.46
2023-05-17T00:32:02.932Z,54.52
2023-05-17T00:33:05.474Z,54.43
2023-05-17T00:34:07.741Z,54.46
2023-05-17T00:35:10.369Z,54.34
2023-05-17T00:36:12.724Z,54.49
2023-05-17T00:37:15.035Z,54.48
2023-05-17T00:38:17.275Z,54.56
2023-05-17T00:39:19.614Z,54.36
2023-05-17T00:40:22.680Z,54.75
2023-05-17T00:41:24.978Z,54.72
2023-05-17T00:42:28.079Z,54.69
2023-05-17T00:43:31.084Z,54.78
2023-05-17T00:44:33.579Z,54.93
2023-05-17T00:45:35.936Z,55.13
2023-05-17T00:46:38.234Z,55.13
2023-05-17T00:47:40.833Z,55.28
2023-05-17T00:48:44.071Z,55.28
2023-05-17T00:49:46.958Z,55.33
2023-05-17T00:50:49.527Z,55.46
2023-05-17T00:51:52.133Z,55.58
2023-05-17T00:52:55.629Z,55.66
2023-05-17T00:53:58.183Z,55.71
2023-05-17T00:55:00.543Z,55.75
2023-05-17T00:56:03.722Z,55.89
2023-05-17T00:57:06.747Z,55.95
2023-05-17T00:58:11.288Z,56.21
2023-05-17T00:59:14.307Z,56.35
2023-05-17T01:00:17.243Z,56.23
2023-05-17T01:01:21.278Z,56.24
2023-05-17T01:02:23.974Z,56.19
2023-05-17T01:03:26.340Z,56.62
2023-05-17T01:04:30.462Z,56.85
2023-05-17T01:05:32.793Z,57.06
2023-05-17T01:06:36.556Z,56.83
2023-05-17T01:07:39.025Z,56.67
2023-05-17T01:08:42.154Z,56.96
2023-05-17T01:09:45.630Z,57.02
2023-05-17T01:11:41.318Z,57.19
2023-05-17T01:13:12.968Z,57.49
2023-05-17T01:14:24.366Z,57.53
2023-05-17T01:15:30.829Z,57.63
2023-05-17T01:16:54.343Z,57.95
2023-05-17T01:17:56.692Z,57.81
2023-05-17T01:19:07.579Z,57.77
2023-05-17T01:20:21.586Z,58.10
2023-05-17T01:22:08.926Z,58.10
2023-05-17T01:23:42.120Z,58.25
2023-05-17T01:25:26.247Z,58.46
2023-05-17T01:26:39.468Z,58.64
2023-05-17T01:27:45.294Z,58.62
2023-05-17T01:28:52.413Z,58.66
2023-05-17T01:29:57.050Z,58.82
2023-05-17T01:31:02.574Z,58.76
2023-05-17T01:32:06.755Z,58.88
2023-05-17T01:33:09.919Z,58.89
2023-05-17T01:34:13.110Z,58.70
2023-05-17T01:35:16.104Z,58.93
2023-05-17T01:36:18.425Z,58.97
2023-05-17T01:37:20.720Z,59.25
2023-05-17T01:38:22.947Z,59.17
2023-05-17T01:39:26.022Z,59.36
2023-05-17T01:40:28.630Z,59.27
2023-05-17T01:41:36.959Z,59.62
2023-05-17T01:42:42.443Z,59.88
2023-05-17T01:43:55.142Z,59.92
2023-05-17T01:45:06.203Z,59.94
2023-05-17T01:46:38.992Z,59.97
2023-05-17T01:48:23.744Z,59.98
2023-05-17T01:49:40.328Z,60.35
2023-05-17T01:50:43.984Z,60.29
2023-05-17T01:52:12.027Z,60.89
2023-05-17T01:53:30.758Z,60.66
2023-05-17T01:54:42.283Z,60.41
2023-05-17T01:55:52.876Z,60.61
2023-05-17T01:56:59.555Z,60.77
2023-05-17T01:58:06.436Z,61.09
2023-05-17T01:59:11.449Z,61.15
2023-05-17T02:00:15.016Z,61.30
2023-05-17T02:01:19.328Z,61.21
2023-05-17T02:02:22.771Z,61.16
2023-05-17T02:03:27.704Z,61.47
2023-05-17T02:04:30.832Z,61.56
2023-05-17T02:05:33.188Z,61.54
2023-05-17T02:06:35.467Z,61.63
2023-05-17T02:07:38.012Z,61.69
2023-05-17T02:08:40.335Z,61.48
2023-05-17T02:09:42.900Z,61.65
2023-05-17T02:10:46.090Z,61.62
2023-05-17T02:11:48.351Z,61.54
2023-05-17T02:12:50.662Z,61.47
2023-05-17T02:13:53.246Z,61.48
2023-05-17T02:14:56.104Z,61.55
2023-05-17T02:16:13.593Z,61.63
2023-05-17T02:17:16.155Z,61.31
2023-05-17T02:18:22.183Z,61.41
2023-05-17T02:19:24.724Z,61.28
2023-05-17T02:20:27.037Z,61.18
2023-05-17T02:21:29.287Z,61.29
2023-05-17T02:22:31.692Z,61.22
2023-05-17T02:23:34.768Z,61.28
2023-05-17T02:24:37.455Z,61.38
2023-05-17T02:25:40.627Z,61.42
2023-05-17T02:26:43.399Z,61.43
2023-05-17T02:27:45.929Z,61.49
2023-05-17T02:28:48.210Z,61.85
2023-05-17T02:29:50.764Z,61.82
2023-05-17T02:30:53.240Z,61.95
2023-05-17T02:31:55.839Z,61.94
2023-05-17T02:32:58.250Z,62.01
2023-05-17T02:34:00.878Z,62.23
2023-05-17T02:35:03.447Z,62.20
2023-05-17T02:36:05.851Z,62.08
2023-05-17T02:37:08.297Z,62.25
2023-05-17T02:38:12.425Z,62.36
2023-05-17T02:39:16.786Z,62.29
2023-05-17T02:40:19.265Z,62.27
2023-05-17T02:41:21.648Z,62.35
2023-05-17T02:42:25.068Z,62.29
2023-05-17T02:43:27.309Z,62.27
2023-05-17T02:44:30.698Z,62.25
2023-05-17T02:45:33.023Z,62.33
2023-05-17T02:46:37.678Z,62.47
2023-05-17T02:47:40.893Z,62.33
2023-05-17T02:48:43.251Z,62.41
2023-05-17T02:49:45.757Z,62.21
2023-05-17T02:50:48.378Z,62.49
2023-05-17T02:51:50.888Z,62.52
2023-05-17T02:52:53.307Z,62.68
2023-05-17T02:53:55.800Z,62.96
2023-05-17T02:54:58.044Z,62.96
2023-05-17T02:56:00.359Z,63.05
2023-05-17T02:57:03.506Z,63.21
2023-05-17T02:58:05.772Z,63.33
2023-05-17T02:59:09.251Z,63.23
2023-05-17T03:00:13.464Z,63.14
2023-05-17T03:01:15.760Z,63.26
2023-05-17T03:02:18.629Z,63.44
2023-05-17T03:03:21.319Z,63.49
2023-05-17T03:04:23.679Z,63.43
2023-05-17T03:05:26.116Z,63.51
2023-05-17T03:06:28.567Z,63.29
2023-05-17T03:07:31.005Z,63.26
2023-05-17T03:08:33.913Z,63.35
2023-05-17T03:09:37.404Z,63.13
2023-05-17T03:10:40.098Z,63.28
2023-05-17T03:11:43.594Z,63.45
2023-05-17T03:12:52.976Z,63.44
2023-05-17T03:13:57.813Z,63.50
2023-05-17T03:15:02.861Z,63.87
2023-05-17T03:16:05.791Z,64.00
2023-05-17T03:17:08.102Z,63.93
2023-05-17T03:18:11.345Z,63.98
2023-05-17T03:19:16.150Z,63.99
2023-05-17T03:20:19.754Z,63.91
2023-05-17T03:21:23.843Z,64.13
2023-05-17T03:22:26.304Z,64.27
2023-05-17T03:23:29.583Z,64.72
2023-05-17T03:24:35.456Z,64.43
2023-05-17T03:25:37.715Z,64.45
2023-05-17T03:26:40.381Z,64.37
2023-05-17T03:27:45.300Z,64.31
2023-05-17T03:28:47.905Z,64.08
2023-05-17T03:29:51.149Z,64.19
2023-05-17T03:30:53.763Z,64.20
2023-05-17T03:31:56.717Z,63.64
2023-05-17T03:32:59.393Z,63.22
2023-05-17T03:34:02.157Z,62.99
2023-05-17T03:35:05.620Z,62.94
2023-05-17T03:36:08.200Z,63.12
2023-05-17T03:37:10.978Z,63.10
2023-05-17T03:38:13.576Z,63.35
2023-05-17T03:39:15.792Z,63.48
2023-05-17T03:40:18.717Z,63.42
2023-05-17T03:41:21.085Z,63.36
2023-05-17T03:42:23.675Z,63.67
2023-05-17T03:43:26.697Z,64.12
2023-05-17T03:44:29.169Z,64.22
2023-05-17T03:45:31.710Z,64.13
2023-05-17T03:46:33.987Z,64.74
2023-05-17T03:47:36.662Z,64.85
2023-05-17T03:48:39.898Z,64.63
2023-05-17T03:49:43.018Z,64.85
2023-05-17T03:50:45.775Z,64.14
2023-05-17T03:51:48.224Z,63.88
2023-05-17T03:52:52.920Z,63.80
2023-05-17T03:54:00.949Z,63.37
2023-05-17T03:55:05.427Z,63.43
2023-05-17T03:56:08.028Z,63.20
2023-05-17T03:57:10.617Z,62.53
2023-05-17T03:58:12.928Z,62.95
2023-05-17T03:59:16.886Z,63.81
2023-05-17T04:00:22.016Z,64.24
2023-05-17T04:01:24.504Z,64.55
2023-05-17T04:02:26.827Z,64.96
2023-05-17T04:03:29.406Z,65.64
2023-05-17T04:04:31.796Z,65.94
2023-05-17T04:05:34.127Z,66.37
2023-05-17T04:06:36.685Z,67.06
2023-05-17T04:07:39.809Z,67.02
2023-05-17T04:08:42.289Z,67.13
2023-05-17T04:09:45.195Z,67.45
2023-05-17T04:10:47.436Z,67.58
2023-05-17T04:11:50.060Z,67.58
2023-05-17T04:12:52.359Z,67.50
2023-05-17T04:13:55.236Z,67.45
2023-05-17T04:14:58.309Z,67.79
2023-05-17T04:16:01.392Z,67.98
2023-05-17T04:17:04.064Z,67.83
2023-05-17T04:18:06.723Z,68.21
2023-05-17T04:19:09.289Z,68.00
2023-05-17T04:20:12.410Z,68.08
2023-05-17T04:21:15.045Z,68.15
2023-05-17T04:22:17.320Z,68.45
2023-05-17T04:23:19.821Z,68.71
2023-05-17T04:24:23.518Z,68.67
2023-05-17T04:25:27.023Z,68.80
2023-05-17T04:26:30.694Z,68.66
2023-05-17T04:27:33.905Z,68.97
2023-05-17T04:28:36.322Z,68.92
2023-05-17T04:29:40.952Z,69.04
2023-05-17T04:30:44.191Z,68.99
2023-05-17T04:31:49.001Z,68.83
2023-05-17T04:32:52.394Z,68.89
2023-05-17T04:33:55.023Z,68.99
2023-05-17T04:34:57.595Z,69.08
2023-05-17T04:36:00.720Z,69.19
2023-05-17T04:37:03.965Z,69.13
2023-05-17T04:38:09.818Z,69.77
2023-05-17T04:39:12.232Z,69.53
2023-05-17T04:40:15.710Z,69.35
2023-05-17T04:41:18.832Z,70.16
2023-05-17T04:42:21.645Z,69.94
2023-05-17T04:43:29.225Z,69.56
2023-05-17T04:44:31.652Z,69.55
2023-05-17T04:45:34.237Z,69.64
2023-05-17T04:46:37.340Z,69.78
2023-05-17T04:47:39.908Z,69.76
2023-05-17T04:48:42.446Z,70.02
2023-05-17T04:49:45.615Z,70.01
2023-05-17T04:50:47.903Z,70.22
2023-05-17T04:51:51.178Z,70.47
2023-05-17T04:52:55.628Z,70.46
2023-05-17T04:54:01.096Z,70.55
2023-05-17T04:55:06.517Z,70.49
2023-05-17T04:56:08.800Z,70.43
2023-05-17T04:57:11.526Z,70.18
2023-05-17T04:58:26.117Z,70.27
2023-05-17T04:59:32.334Z,70.14
2023-05-17T05:00:35.278Z,70.11
2023-05-17T05:01:39.804Z,70.00
2023-05-17T05:02:42.657Z,70.13
2023-05-17T05:03:46.351Z,69.75
2023-05-17T05:04:49.035Z,69.74
2023-05-17T05:05:52.407Z,69.47
2023-05-17T05:06:55.523Z,69.57
2023-05-17T05:07:58.221Z,69.32
2023-05-17T05:09:01.591Z,69.48
2023-05-17T05:10:04.249Z,69.24
2023-05-17T05:11:06.713Z,69.06
2023-05-17T05:12:09.235Z,69.02
2023-05-17T05:13:13.010Z,68.98
2023-05-17T05:14:16.788Z,68.87
2023-05-17T05:15:19.176Z,68.92
2023-05-17T05:16:28.063Z,68.76
2023-05-17T05:17:31.508Z,68.66
2023-05-17T05:18:35.155Z,68.74
2023-05-17T05:19:37.962Z,68.76
2023-05-17T05:20:41.325Z,68.74
2023-05-17T05:21:46.853Z,68.88
2023-05-17T05:22:49.923Z,69.12
2023-05-17T05:23:53.870Z,69.09
2023-05-17T05:24:56.831Z,69.01
2023-05-17T05:25:59.314Z,68.74
2023-05-17T05:27:03.460Z,68.71
2023-05-17T05:28:06.759Z,68.50
2023-05-17T05:29:11.498Z,68.52
2023-05-17T05:30:21.844Z,67.81
2023-05-17T05:31:26.002Z,67.63
2023-05-17T05:32:32.283Z,67.46
2023-05-17T05:33:34.938Z,67.42
2023-05-17T05:34:39.087Z,67.30
2023-05-17T05:35:41.473Z,66.73
2023-05-17T05:36:44.718Z,66.25
2023-05-17T05:37:47.278Z,66.09
2023-05-17T05:38:50.246Z,66.05
2023-05-17T05:39:52.617Z,65.68
2023-05-17T05:40:55.385Z,65.53
2023-05-17T05:41:57.854Z,64.69
2023-05-17T05:43:00.126Z,64.05
2023-05-17T05:44:02.541Z,63.68
2023-05-17T05:45:05.200Z,63.27
2023-05-17T05:46:11.384Z,62.66
2023-05-17T05:47:13.702Z,61.42
2023-05-17T05:48:16.080Z,60.23
2023-05-17T05:49:19.687Z,60.15
2023-05-17T05:50:21.993Z,59.24
2023-05-17T05:51:26.816Z,58.75
2023-05-17T05:52:29.062Z,59.29
2023-05-17T05:53:31.582Z,59.21
2023-05-17T05:54:34.823Z,58.20
2023-05-17T05:55:41.242Z,57.92
2023-05-17T05:56:43.751Z,57.54
2023-05-17T05:57:48.452Z,57.83
2023-05-17T05:58:51.170Z,57.57
2023-05-17T05:59:54.405Z,57.15
2023-05-17T06:00:57.453Z,56.94
2023-05-17T06:02:00.059Z,57.22
2023-05-17T06:03:02.312Z,57.17
2023-05-17T06:04:04.888Z,56.81
2023-05-17T06:05:08.423Z,56.75
2023-05-17T06:06:11.187Z,55.71
2023-05-17T06:07:14.637Z,54.49
2023-05-17T06:08:16.887Z,53.81
2023-05-17T06:09:19.153Z,52.98
2023-05-17T06:10:21.922Z,52.23
2023-05-17T06:11:25.783Z,51.79
2023-05-17T06:12:28.215Z,51.27
2023-05-17T06:13:30.655Z,50.37
2023-05-17T06:14:33.048Z,50.61
2023-05-17T06:15:36.274Z,50.03
2023-05-17T06:16:38.528Z,50.26
2023-05-17T06:17:41.069Z,50.54
2023-05-17T06:18:43.464Z,50.10
2023-05-17T06:19:46.281Z,50.19
2023-05-17T06:20:48.537Z,50.79
2023-05-17T06:21:51.269Z,51.69
2023-05-17T06:22:53.736Z,52.81
2023-05-17T06:23:56.014Z,54.08
2023-05-17T06:24:58.609Z,53.69
2023-05-17T06:26:01.185Z,52.84
2023-05-17T06:27:03.679Z,52.18
2023-05-17T06:28:06.092Z,51.96
2023-05-17T06:29:08.311Z,52.15
2023-05-17T06:30:11.642Z,51.85
2023-05-17T06:31:13.906Z,50.87
2023-05-17T06:32:16.384Z,50.61
2023-05-17T06:33:18.751Z,50.70
2023-05-17T06:34:21.381Z,51.51
2023-05-17T06:35:23.821Z,51.50
2023-05-17T06:36:28.197Z,51.52
2023-05-17T06:37:30.545Z,51.37
2023-05-17T06:38:32.779Z,51.01
2023-05-17T06:39:35.203Z,50.75
2023-05-17T06:40:37.708Z,49.77
2023-05-17T06:41:40.051Z,49.00
2023-05-17T06:42:42.640Z,48.53
2023-05-17T06:43:46.090Z,48.83
2023-05-17T06:44:48.351Z,48.85
2023-05-17T06:45:51.382Z,48.75
2023-05-17T06:46:53.641Z,48.62
2023-05-17T06:47:56.131Z,49.04
2023-05-17T06:48:58.871Z,49.83
2023-05-17T06:50:01.436Z,50.98
2023-05-17T06:51:03.986Z,51.25
2023-05-17T06:52:06.573Z,50.82
2023-05-17T06:53:09.030Z,49.83
2023-05-17T06:54:11.527Z,48.83
2023-05-17T06:55:13.897Z,48.59
2023-05-17T06:56:16.660Z,48.12
2023-05-17T06:57:18.908Z,47.77
2023-05-17T06:58:21.154Z,47.46
2023-05-17T06:59:23.642Z,47.64
2023-05-17T07:00:26.314Z,47.96
2023-05-17T07:01:28.777Z,48.26
2023-05-17T07:02:34.590Z,48.86
2023-05-17T07:03:37.487Z,48.44
2023-05-17T07:04:40.018Z,48.31
2023-05-17T07:05:42.348Z,48.29
2023-05-17T07:06:44.799Z,48.87
2023-05-17T07:07:47.035Z,49.31
2023-05-17T07:08:49.544Z,49.28
2023-05-17T07:09:51.779Z,48.75
2023-05-17T07:10:54.333Z,48.19
2023-05-17T07:11:56.987Z,47.16
2023-05-17T07:12:59.522Z,47.11
2023-05-17T07:14:01.978Z,47.54
2023-05-17T07:15:04.561Z,47.71
2023-05-17T07:16:08.826Z,47.85
2023-05-17T07:17:11.719Z,48.48
2023-05-17T07:18:14.241Z,48.25
2023-05-17T07:19:16.864Z,47.59
2023-05-17T07:20:20.147Z,47.15
2023-05-17T07:21:24.110Z,46.20
2023-05-17T07:22:26.403Z,46.49
2023-05-17T07:23:28.846Z,46.69
2023-05-17T07:24:31.182Z,47.15
2023-05-17T07:25:33.621Z,46.71
2023-05-17T07:26:36.379Z,46.71
2023-05-17T07:27:38.648Z,46.70
2023-05-17T07:28:43.729Z,46.34
2023-05-17T07:29:46.065Z,46.14
2023-05-17T07:30:48.371Z,45.84
2023-05-17T07:31:51.009Z,45.80
2023-05-17T07:32:54.521Z,46.47
2023-05-17T07:33:56.838Z,46.86
2023-05-17T07:34:59.129Z,47.36
2023-05-17T07:36:01.745Z,47.90
2023-05-17T07:37:04.360Z,47.70
2023-05-17T07:38:06.770Z,46.83
2023-05-17T07:39:10.130Z,46.14
2023-05-17T07:40:12.660Z,45.81
2023-05-17T07:41:17.153Z,46.01
2023-05-17T07:42:20.588Z,46.60
2023-05-17T07:43:22.844Z,46.58
2023-05-17T07:44:25.181Z,46.01
2023-05-17T07:45:27.753Z,44.88
2023-05-17T07:46:30.345Z,45.06
2023-05-17T07:47:32.909Z,45.51
2023-05-17T07:48:35.442Z,45.27
2023-05-17T07:49:37.815Z,44.41
2023-05-17T07:50:41.759Z,43.77
2023-05-17T07:51:44.314Z,43.46
2023-05-17T07:52:46.992Z,42.79
2023-05-17T07:53:49.285Z,42.54
2023-05-17T07:54:51.642Z,42.49
2023-05-17T07:55:54.141Z,42.60
2023-05-17T07:56:57.035Z,42.38
2023-05-17T07:57:59.401Z,41.87
2023-05-17T07:59:01.843Z,42.35
2023-05-17T08:00:04.916Z,42.27
2023-05-17T08:01:13.702Z,42.73
2023-05-17T08:02:16.244Z,43.93
2023-05-17T08:03:18.548Z,44.05
2023-05-17T08:04:21.279Z,44.04
2023-05-17T08:05:24.464Z,44.40
2023-05-17T08:06:26.831Z,44.60
2023-05-17T08:07:29.462Z,44.79
2023-05-17T08:08:31.753Z,44.25
2023-05-17T08:09:34.020Z,45.02
2023-05-17T08:10:37.852Z,45.21
2023-05-17T08:11:45.875Z,45.09
2023-05-17T08:12:48.472Z,44.15
2023-05-17T08:13:52.132Z,44.32
2023-05-17T08:14:54.383Z,45.46
2023-05-17T08:16:05.308Z,45.37
2023-05-17T08:17:15.272Z,45.13
2023-05-17T08:18:19.024Z,44.00
2023-05-17T08:19:21.727Z,44.32
2023-05-17T08:20:24.618Z,44.80
2023-05-17T08:21:27.458Z,45.68
2023-05-17T08:22:30.112Z,46.55
2023-05-17T08:23:32.998Z,47.26
2023-05-17T08:24:36.023Z,47.20
2023-05-17T08:25:38.394Z,47.24
2023-05-17T08:26:41.109Z,46.86
2023-05-17T08:27:43.779Z,46.57
2023-05-17T08:28:46.196Z,46.35
2023-05-17T08:29:48.678Z,46.06
2023-05-17T08:30:50.932Z,44.44
2023-05-17T08:31:54.868Z,43.56
2023-05-17T08:32:57.430Z,43.04
2023-05-17T08:34:15.247Z,41.97
2023-05-17T08:35:17.959Z,41.63
2023-05-17T08:36:21.002Z,41.37
2023-05-17T08:37:23.777Z,40.87
2023-05-17T08:38:26.716Z,41.29
2023-05-17T08:39:29.357Z,41.75
2023-05-17T08:40:32.536Z,42.35
2023-05-17T08:41:36.821Z,41.88
2023-05-17T08:42:39.502Z,41.88
2023-05-17T08:43:45.036Z,42.08
2023-05-17T08:44:47.991Z,42.09
2023-05-17T08:45:50.598Z,41.66
2023-05-17T08:46:56.561Z,41.95
2023-05-17T08:47:59.102Z,42.66
2023-05-17T08:49:04.186Z,42.44
2023-05-17T08:50:07.773Z,41.53
2023-05-17T08:51:12.362Z,42.19
2023-05-17T08:52:15.669Z,42.85
2023-05-17T08:53:18.511Z,43.25
2023-05-17T08:54:21.157Z,44.35
2023-05-17T08:55:25.550Z,45.19
2023-05-17T08:56:30.017Z,45.09
2023-05-17T08:57:34.356Z,44.71
2023-05-17T08:58:52.331Z,44.16
2023-05-17T09:00:12.441Z,43.15
2023-05-17T09:01:16.827Z,41.81
2023-05-17T09:02:20.134Z,42.79
2023-05-17T09:03:23.998Z,41.81
2023-05-17T09:04:27.600Z,40.51
2023-05-17T09:05:30.003Z,40.07
2023-05-17T09:06:33.663Z,39.65
2023-05-17T09:07:36.720Z,39.87
2023-05-17T09:08:39.314Z,40.15
2023-05-17T09:09:41.980Z,40.07
2023-05-17T09:10:44.279Z,40.22
2023-05-17T09:11:46.942Z,39.80
2023-05-17T09:12:49.295Z,39.39
2023-05-17T09:13:51.721Z,39.63
2023-05-17T09:14:54.028Z,39.52
2023-05-17T09:15:56.541Z,39.09
2023-05-17T09:16:59.138Z,37.71
2023-05-17T09:18:02.068Z,37.82
2023-05-17T09:19:06.465Z,37.96
2023-05-17T09:20:10.629Z,38.39
2023-05-17T09:21:13.584Z,38.40
2023-05-17T09:22:19.688Z,38.31
2023-05-17T09:23:22.431Z,39.27
2023-05-17T09:24:31.029Z,39.83
2023-05-17T09:25:33.735Z,39.41
2023-05-17T09:26:44.681Z,39.18
2023-05-17T09:27:47.153Z,38.74
2023-05-17T09:28:49.502Z,38.35
2023-05-17T09:29:54.735Z,38.00
2023-05-17T09:30:57.102Z,38.29
2023-05-17T09:32:18.563Z,37.93
2023-05-17T09:33:21.878Z,38.75
2023-05-17T09:34:25.095Z,38.64
2023-05-17T09:35:30.273Z,38.22
2023-05-17T09:36:32.736Z,38.03
2023-05-17T09:37:38.568Z,38.20
2023-05-17T09:38:41.225Z,38.38
2023-05-17T09:39:45.321Z,37.85
2023-05-17T09:40:48.409Z,38.13
2023-05-17T09:41:56.897Z,38.69
2023-05-17T09:42:59.844Z,39.25
2023-05-17T09:44:09.355Z,39.27
2023-05-17T09:45:11.813Z,39.58
2023-05-17T09:46:15.639Z,39.59
2023-05-17T09:47:28.724Z,40.16
2023-05-17T09:48:33.630Z,40.87
2023-05-17T09:49:36.431Z,41.89
2023-05-17T09:50:47.617Z,42.70
2023-05-17T09:51:50.536Z,42.83
2023-05-17T09:52:52.858Z,42.69
2023-05-17T09:53:55.312Z,42.18
2023-05-17T09:54:59.898Z,41.98
2023-05-17T09:56:05.809Z,41.34
2023-05-17T09:57:10.376Z,40.78
2023-05-17T09:58:12.644Z,40.34
2023-05-17T09:59:16.237Z,39.75
2023-05-17T10:00:20.966Z,39.33
2023-05-17T10:01:28.307Z,38.51
2023-05-17T10:02:33.012Z,37.98
2023-05-17T10:03:38.650Z,37.59
2023-05-17T10:04:42.274Z,37.22
2023-05-17T10:05:46.980Z,37.13
2023-05-17T10:06:52.096Z,37.19
2023-05-17T10:07:56.554Z,37.04
2023-05-17T10:09:00.728Z,36.94
2023-05-17T10:10:03.935Z,37.42
2023-05-17T10:11:09.605Z,37.56
2023-05-17T10:12:16.647Z,37.58
2023-05-17T10:13:24.847Z,37.41
2023-05-17T10:14:32.416Z,37.06
2023-05-17T10:15:36.494Z,37.08
2023-05-17T10:16:39.444Z,36.40
2023-05-17T10:17:44.585Z,36.06
2023-05-17T10:18:48.077Z,35.90
2023-05-17T10:19:51.392Z,36.07
2023-05-17T10:20:54.212Z,35.72
2023-05-17T10:22:05.225Z,35.29
2023-05-17T10:23:22.334Z,34.95
2023-05-17T10:24:26.958Z,34.84
2023-05-17T10:25:30.828Z,34.55
2023-05-17T10:26:34.423Z,34.59
2023-05-17T10:27:36.847Z,34.55
2023-05-17T10:28:39.682Z,34.81
2023-05-17T10:29:43.694Z,35.24
2023-05-17T10:30:47.734Z,35.66
2023-05-17T10:31:53.649Z,36.40
2023-05-17T10:32:56.796Z,36.94
2023-05-17T10:34:01.432Z,37.53
2023-05-17T10:35:11.180Z,37.79
2023-05-17T10:36:17.554Z,38.06
2023-05-17T10:37:21.680Z,37.78
2023-05-17T10:38:32.022Z,36.91
2023-05-17T10:39:46.726Z,36.71
2023-05-17T10:40:52.705Z,36.71
2023-05-17T10:42:10.771Z,36.44
2023-05-17T10:43:18.598Z,35.69
2023-05-17T10:44:22.295Z,35.49
2023-05-17T10:45:27.263Z,34.92
2023-05-17T10:46:31.570Z,34.87
2023-05-17T10:47:34.670Z,35.05
2023-05-17T10:48:37.445Z,35.72
2023-05-17T10:49:41.647Z,36.67
2023-05-17T10:50:54.533Z,37.10
2023-05-17T10:52:17.950Z,37.40
2023-05-17T10:53:20.485Z,37.40
2023-05-17T10:54:35.226Z,37.26
2023-05-17T10:55:40.750Z,37.50
2023-05-17T10:56:53.828Z,38.04
2023-05-17T10:58:22.767Z,37.77
2023-05-17T10:59:29.689Z,38.13
2023-05-17T11:00:38.419Z,37.88
2023-05-17T11:02:00.517Z,38.17
2023-05-17T11:03:20.277Z,38.69
2023-05-17T11:04:25.871Z,38.35
2023-05-17T11:05:29.089Z,38.19
2023-05-17T11:06:36.681Z,38.26
2023-05-17T11:07:39.838Z,38.21
2023-05-17T11:08:50.051Z,38.24
2023-05-17T11:09:56.659Z,38.07
2023-05-17T11:11:18.195Z,38.38
2023-05-17T11:12:40.385Z,38.00
2023-05-17T11:13:55.988Z,37.56
2023-05-17T11:14:58.738Z,36.77
2023-05-17T11:16:21.943Z,36.24
2023-05-17T11:17:33.915Z,35.82
2023-05-17T11:18:53.695Z,33.98
2023-05-17T11:20:11.623Z,33.04
2023-05-17T11:21:16.385Z,33.07
2023-05-17T11:22:19.058Z,32.99
2023-05-17T11:23:23.342Z,33.73
2023-05-17T11:24:29.207Z,33.19
2023-05-17T11:25:37.032Z,33.61
2023-05-17T11:26:40.587Z,33.62
2023-05-17T11:27:47.284Z,33.86
2023-05-17T11:29:00.559Z,33.84
2023-05-17T11:30:18.510Z,34.13
2023-05-17T11:31:31.147Z,33.99
2023-05-17T11:32:33.324Z,33.60
2023-05-17T11:33:43.051Z,33.14
2023-05-17T11:34:52.647Z,33.41
2023-05-17T11:35:55.943Z,33.44
2023-05-17T11:36:58.194Z,32.69
2023-05-17T11:38:24.535Z,31.46
2023-05-17T11:39:27.126Z,31.64
2023-05-17T11:40:29.740Z,31.55
2023-05-17T11:41:32.416Z,31.68
2023-05-17T11:42:39.531Z,31.11
2023-05-17T11:43:47.317Z,30.44
2023-05-17T11:44:50.072Z,30.35
2023-05-17T11:45:54.369Z,29.77
2023-05-17T11:47:12.174Z,29.91
2023-05-17T11:48:15.938Z,30.00
2023-05-17T11:49:34.007Z,29.90
2023-05-17T11:50:38.837Z,30.24
2023-05-17T11:51:41.388Z,30.21
2023-05-17T11:52:43.925Z,30.25
2023-05-17T11:53:48.812Z,30.17
2023-05-17T11:54:52.202Z,30.22
2023-05-17T11:55:56.251Z,30.07
2023-05-17T11:57:00.162Z,30.85
2023-05-17T11:58:04.201Z,30.81
2023-05-17T11:59:06.451Z,30.81
2023-05-17T12:00:09.517Z,30.93
2023-05-17T12:01:17.891Z,31.33
2023-05-17T12:02:32.138Z,31.07
2023-05-17T12:03:35.397Z,30.96
2023-05-17T12:04:39.121Z,30.95
2023-05-17T12:05:41.475Z,31.34
2023-05-17T12:06:45.071Z,31.29
2023-05-17T12:07:50.580Z,30.61
2023-05-17T12:08:52.887Z,29.84
2023-05-17T12:09:55.480Z,29.83
2023-05-17T12:10:58.263Z,30.02
2023-05-17T12:12:04.713Z,29.67
2023-05-17T12:13:07.555Z,29.44
2023-05-17T12:14:10.222Z,28.29
2023-05-17T12:15:19.130Z,28.57
2023-05-17T12:16:22.455Z,29.39
2023-05-17T12:17:37.383Z,29.39
2023-05-17T12:18:45.445Z,29.14
2023-05-17T12:19:47.961Z,28.71
2023-05-17T12:20:58.077Z,29.59
2023-05-17T12:22:13.828Z,30.04
2023-05-17T12:23:16.341Z,30.25
2023-05-17T12:24:18.678Z,30.36
2023-05-17T12:25:29.568Z,30.23
2023-05-17T12:26:32.033Z,29.96
2023-05-17T12:27:34.275Z,29.69
2023-05-17T12:28:55.336Z,29.49
2023-05-17T12:29:57.569Z,28.96
2023-05-17T12:31:03.923Z,29.11
2023-05-17T12:32:08.668Z,29.04
2023-05-17T12:33:11.399Z,29.34
2023-05-17T12:34:14.315Z,29.61
2023-05-17T12:35:17.153Z,29.59
2023-05-17T12:36:19.654Z,29.61
2023-05-17T12:37:21.961Z,29.88
2023-05-17T12:38:27.893Z,30.11
2023-05-17T12:39:31.693Z,30.13
2023-05-17T12:40:34.268Z,29.80
2023-05-17T12:41:38.616Z,29.84
2023-05-17T12:42:43.829Z,29.55
2023-05-17T12:43:46.927Z,28.90
2023-05-17T12:44:49.186Z,28.77
2023-05-17T12:45:53.164Z,28.95
2023-05-17T12:46:57.622Z,29.18
2023-05-17T12:48:00.967Z,29.51
2023-05-17T12:49:11.934Z,29.40
2023-05-17T12:50:14.385Z,29.26
2023-05-17T12:51:18.576Z,28.97
2023-05-17T12:52:20.867Z,28.96
2023-05-17T12:53:23.648Z,28.84
2023-05-17T12:54:29.666Z,29.05
2023-05-17T12:55:37.520Z,28.85
2023-05-17T12:56:43.692Z,28.53
2023-05-17T12:57:51.162Z,28.33
2023-05-17T12:59:13.152Z,28.26
2023-05-17T13:00:16.122Z,28.44
2023-05-17T13:01:18.512Z,28.55
2023-05-17T13:02:21.059Z,28.09
2023-05-17T13:03:23.843Z,27.67
2023-05-17T13:04:33.502Z,27.96
2023-05-17T13:05:36.219Z,28.24
2023-05-17T13:06:51.141Z,28.40
2023-05-17T13:07:53.470Z,28.83
2023-05-17T13:09:00.345Z,28.50
2023-05-17T13:10:02.653Z,27.94
2023-05-17T13:11:13.617Z,28.14
2023-05-17T13:12:24.462Z,27.48
2023-05-17T13:13:33.573Z,27.12
2023-05-17T13:14:56.217Z,27.31
2023-05-17T13:15:58.665Z,27.34
2023-05-17T13:17:02.423Z,27.54
2023-05-17T13:18:16.062Z,27.51
2023-05-17T13:19:18.417Z,27.43
2023-05-17T13:20:21.045Z,28.11
2023-05-17T13:21:24.769Z,28.52
2023-05-17T13:22:28.280Z,28.88
2023-05-17T13:23:30.689Z,28.83
2023-05-17T13:24:37.776Z,29.22
2023-05-17T13:25:40.045Z,29.24
2023-05-17T13:26:42.417Z,29.30
2023-05-17T13:27:48.622Z,29.54
2023-05-17T13:28:51.346Z,30.17
2023-05-17T13:29:53.894Z,30.49
2023-05-17T13:30:56.377Z,29.84
2023-05-17T13:31:59.035Z,30.06
2023-05-17T13:33:02.016Z,30.15
2023-05-17T13:34:04.760Z,30.03
2023-05-17T13:35:08.017Z,29.76
2023-05-17T13:36:10.358Z,30.01
2023-05-17T13:37:13.134Z,30.16
2023-05-17T13:38:15.875Z,29.89
2023-05-17T13:39:18.517Z,29.72
2023-05-17T13:40:20.848Z,29.93
2023-05-17T13:41:23.214Z,29.97
2023-05-17T13:42:25.534Z,30.10
2023-05-17T13:43:28.251Z,30.15
2023-05-17T13:44:31.002Z,29.92
2023-05-17T13:45:33.278Z,29.76
2023-05-17T13:46:35.667Z,29.33
2023-05-17T13:47:38.188Z,29.10
2023-05-17T13:48:42.780Z,28.96
2023-05-17T13:49:45.608Z,29.18
2023-05-17T13:50:48.438Z,29.06
2023-05-17T13:51:50.908Z,29.04
2023-05-17T13:52:53.638Z,29.00
2023-05-17T13:53:55.962Z,29.12
2023-05-17T13:54:58.325Z,28.88
2023-05-17T13:56:01.016Z,28.57
2023-05-17T13:57:03.532Z,28.26
2023-05-17T13:58:06.702Z,28.31